KHOU/HOU METAR and TAF weather

Enter ICAO airport designator
Station Type Date Time Source
KHOU METAR 2019/02/20 16:53 UTC NOAA

KHOU 201653Z 35009KT 10SM BKN055 BKN085 11/06 A3002 RMK AO2 SLP172 T01110061


Station Type Date Time Source
KHOU Decoded METAR 2019/02/20 16:53 UTC NOAA

HOUSTON HOBBY AIRPORT, TX, United States (KHOU) 29-38N 095-17W 36M
Feb 20, 2019 - 11:53 AM EST / 2019.02.20 1653 UTC
Wind: from the N (350 degrees) at 10 MPH (9 KT):0
Visibility: 10 mile(s):0
Sky conditions: mostly cloudy
Temperature: 52.0 F (11.1 C)
Dew Point: 43.0 F (6.1 C)
Relative Humidity: 71%
Pressure (altimeter): 30.02 in. Hg (1016 hPa)
ob: KHOU 201653Z 35009KT 10SM BKN055 BKN085 11/06 A3002 RMK AO2 SLP172 T01110061
cycle: 17

Station Type Date Time Source
KHOU TAF 2019/02/20 15:21 UTC NOAA

TAF
AMD KHOU 201518Z 2015/2112 34011KT P6SM FEW011 OVC050
FM201700 34010KT P6SM FEW045 BKN250
FM201900 35009KT P6SM SCT250
FM210700 03006KT P6SM SCT050 BKN150
FM211100 06008KT P6SM SHRA SCT025 OVC035


Example: see airport list